createdAt,value
2023-04-10T00:00:31.531Z,97318.84
2023-04-10T00:03:28.595Z,97313.47
2023-04-10T00:06:26.350Z,97309.00
2023-04-10T00:09:23.169Z,97315.75
2023-04-10T00:12:20.541Z,97318.28
2023-04-10T00:15:17.389Z,97324.25
2023-04-10T00:18:14.221Z,97322.75
2023-04-10T00:21:11.117Z,97321.84
2023-04-10T00:24:08.242Z,97327.38
2023-04-10T00:27:05.429Z,97316.91
2023-04-10T00:30:02.668Z,97314.94
2023-04-10T00:32:59.562Z,97305.41
2023-04-10T00:35:56.509Z,97320.81
2023-04-10T00:38:53.664Z,97312.88
2023-04-10T00:41:50.511Z,97299.31
2023-04-10T00:44:47.385Z,97297.28
2023-04-10T00:47:44.257Z,97298.88
2023-04-10T00:50:41.397Z,97300.34
2023-04-10T00:53:38.283Z,97304.75
2023-04-10T00:56:35.517Z,97300.84
2023-04-10T00:59:32.520Z,97313.22
2023-04-10T01:02:29.550Z,97306.22
2023-04-10T01:05:32.628Z,97299.56
2023-04-10T01:09:17.532Z,97295.88
2023-04-10T01:12:51.355Z,97296.59
2023-04-10T01:15:56.337Z,97303.47
2023-04-10T01:19:36.820Z,97300.69
2023-04-10T01:23:04.623Z,97304.59
2023-04-10T01:26:17.371Z,97290.00
2023-04-10T01:29:21.111Z,97289.09
2023-04-10T01:32:22.022Z,97301.50
2023-04-10T01:35:19.554Z,97295.56
2023-04-10T01:38:21.489Z,97303.47
2023-04-10T01:41:19.998Z,97304.03
2023-04-10T01:44:21.482Z,97296.47
2023-04-10T01:47:19.487Z,97304.25
2023-04-10T01:50:17.691Z,97305.22
2023-04-10T01:53:15.868Z,97301.13
2023-04-10T01:56:13.475Z,97304.00
2023-04-10T01:59:10.543Z,97308.91
2023-04-10T02:02:12.306Z,97305.59
2023-04-10T02:05:12.816Z,97310.84
2023-04-10T02:08:20.900Z,97311.25
2023-04-10T02:11:47.436Z,97315.09
2023-04-10T02:14:47.432Z,97308.63
2023-04-10T02:17:45.069Z,97304.56
2023-04-10T02:20:42.451Z,97310.38
2023-04-10T02:23:40.231Z,97305.47
2023-04-10T02:26:48.324Z,97313.47
2023-04-10T02:29:45.514Z,97312.91
2023-04-10T02:32:42.375Z,97327.09
2023-04-10T02:35:39.261Z,97324.00
2023-04-10T02:38:36.355Z,97317.44
2023-04-10T02:41:33.245Z,97318.34
2023-04-10T02:44:30.259Z,97320.69
2023-04-10T02:47:27.204Z,97321.84
2023-04-10T02:50:24.204Z,97316.97
2023-04-10T02:53:23.133Z,97312.28
2023-04-10T02:56:20.800Z,97306.44
2023-04-10T02:59:18.103Z,97312.19
2023-04-10T03:02:14.972Z,97313.66
2023-04-10T03:05:12.089Z,97310.22
2023-04-10T03:08:08.913Z,97310.88
2023-04-10T03:11:07.460Z,97309.47
2023-04-10T03:14:05.141Z,97312.91
2023-04-10T03:17:02.140Z,97311.88
2023-04-10T03:19:58.984Z,97316.94
2023-04-10T03:22:55.935Z,97310.56
2023-04-10T03:25:56.220Z,97310.00
2023-04-10T03:28:53.072Z,97301.94
2023-04-10T03:31:49.985Z,97287.59
2023-04-10T03:34:46.844Z,97298.53
2023-04-10T03:37:43.770Z,97301.44
2023-04-10T03:40:40.625Z,97296.97
2023-04-10T03:43:37.495Z,97289.81
2023-04-10T03:46:34.478Z,97289.31
2023-04-10T03:49:31.348Z,97293.94
2023-04-10T03:52:28.296Z,97290.91
2023-04-10T03:55:25.156Z,97299.97
2023-04-10T03:58:22.025Z,97290.53
2023-04-10T04:01:18.986Z,97295.38
2023-04-10T04:04:16.028Z,97304.97
2023-04-10T04:07:13.723Z,97310.31
2023-04-10T04:10:10.727Z,97304.47
2023-04-10T04:13:07.563Z,97290.19
2023-04-10T04:16:04.830Z,97288.16
2023-04-10T04:19:01.657Z,97288.03
2023-04-10T04:22:00.364Z,97286.03
2023-04-10T04:24:57.269Z,97289.13
2023-04-10T04:27:54.133Z,97303.84
2023-04-10T04:30:51.078Z,97303.91
2023-04-10T04:33:48.017Z,97296.56
2023-04-10T04:36:44.889Z,97298.84
2023-04-10T04:39:41.862Z,97298.69
2023-04-10T04:42:38.800Z,97299.00
2023-04-10T04:45:35.707Z,97309.75
2023-04-10T04:48:32.570Z,97309.09
2023-04-10T04:51:29.402Z,97301.91
2023-04-10T04:54:26.252Z,97302.13
2023-04-10T04:57:23.080Z,97302.69
2023-04-10T05:00:19.976Z,97303.72
2023-04-10T05:03:16.981Z,97294.09
2023-04-10T05:06:14.455Z,97294.59
2023-04-10T05:09:11.619Z,97289.84
2023-04-10T05:12:08.478Z,97292.75
2023-04-10T05:15:06.376Z,97290.00
2023-04-10T05:18:03.395Z,97289.69
2023-04-10T05:21:00.518Z,97288.94
2023-04-10T05:23:57.570Z,97275.09
2023-04-10T05:26:54.383Z,97284.94
2023-04-10T05:29:51.273Z,97282.72
2023-04-10T05:32:48.250Z,97278.94
2023-04-10T05:35:47.198Z,97282.72
2023-04-10T05:38:44.259Z,97287.22
2023-04-10T05:41:41.222Z,97282.31
2023-04-10T05:44:38.054Z,97283.81
2023-04-10T05:47:34.956Z,97287.03
2023-04-10T05:50:31.868Z,97296.47
2023-04-10T05:53:31.290Z,97291.88
2023-04-10T05:56:28.146Z,97301.16
2023-04-10T05:59:25.036Z,97301.53
2023-04-10T06:02:22.128Z,97292.31
2023-04-10T06:05:19.282Z,97289.34
2023-04-10T06:08:16.144Z,97284.97
2023-04-10T06:11:13.011Z,97295.28
2023-04-10T06:14:09.856Z,97296.22
2023-04-10T06:17:06.660Z,97290.88
2023-04-10T06:20:04.699Z,97293.72
2023-04-10T06:23:02.388Z,97282.84
2023-04-10T06:26:00.380Z,97279.66
2023-04-10T06:28:57.266Z,97286.22
2023-04-10T06:31:54.267Z,97287.09
2023-04-10T06:34:51.267Z,97283.88
2023-04-10T06:37:48.430Z,97284.97
2023-04-10T06:40:45.331Z,97277.91
2023-04-10T06:43:42.203Z,97281.28
2023-04-10T06:46:39.108Z,97271.56
2023-04-10T06:49:35.981Z,97264.03
2023-04-10T06:52:33.296Z,97261.28
2023-04-10T06:55:31.174Z,97259.50
2023-04-10T06:58:28.156Z,97250.38
2023-04-10T07:01:26.498Z,97267.34
2023-04-10T07:04:23.477Z,97257.44
2023-04-10T07:07:20.329Z,97253.97
2023-04-10T07:10:17.694Z,97249.63
2023-04-10T07:13:17.555Z,97248.50
2023-04-10T07:16:14.379Z,97237.25
2023-04-10T07:19:11.259Z,97229.31
2023-04-10T07:22:08.266Z,97224.81
2023-04-10T07:25:05.615Z,97221.72
2023-04-10T07:28:02.573Z,97223.13
2023-04-10T07:30:59.458Z,97217.31
2023-04-10T07:33:56.284Z,97215.56
2023-04-10T07:36:53.176Z,97211.25
2023-04-10T07:39:49.989Z,97218.19
2023-04-10T07:42:47.603Z,97209.69
2023-04-10T07:45:44.461Z,97211.53
2023-04-10T07:48:41.398Z,97207.03
2023-04-10T07:51:38.241Z,97206.50
2023-04-10T07:54:35.389Z,97202.50
2023-04-10T07:57:32.434Z,97192.88
2023-04-10T08:00:29.297Z,97200.22
2023-04-10T08:03:26.928Z,97199.41
2023-04-10T08:06:23.884Z,97187.97
2023-04-10T08:09:20.825Z,97185.44
2023-04-10T08:12:17.725Z,97192.66
2023-04-10T08:15:14.679Z,97183.72
2023-04-10T08:18:11.529Z,97184.22
2023-04-10T08:21:08.444Z,97183.28
2023-04-10T08:24:05.712Z,97177.72
2023-04-10T08:27:02.625Z,97182.34
2023-04-10T08:29:59.460Z,97179.03
2023-04-10T08:32:56.970Z,97181.97
2023-04-10T08:35:54.049Z,97180.78
2023-04-10T08:38:50.970Z,97183.31
2023-04-10T08:41:47.790Z,97176.63
2023-04-10T08:44:45.992Z,97176.94
2023-04-10T08:47:45.360Z,97187.41
2023-04-10T08:50:45.362Z,97162.28
2023-04-10T08:53:45.057Z,97168.88
2023-04-10T08:56:46.872Z,97167.19
2023-04-10T08:59:43.817Z,97176.72
2023-04-10T09:02:42.833Z,97154.09
2023-04-10T09:05:39.910Z,97156.41
2023-04-10T09:08:36.815Z,97143.16
2023-04-10T09:12:04.225Z,97158.84
2023-04-10T09:15:01.187Z,97144.78
2023-04-10T09:18:03.476Z,97145.94
2023-04-10T09:21:11.269Z,97133.81
2023-04-10T09:24:08.315Z,97131.72
2023-04-10T09:27:06.359Z,97120.50
2023-04-10T09:30:04.813Z,97107.75
2023-04-10T09:33:02.889Z,97112.72
2023-04-10T09:36:00.979Z,97117.44
2023-04-10T09:38:58.385Z,97117.75
2023-04-10T09:41:55.571Z,97087.13
2023-04-10T09:44:55.649Z,97093.81
2023-04-10T09:48:07.925Z,97085.72
2023-04-10T09:51:05.005Z,97083.56
2023-04-10T09:54:05.050Z,97085.59
2023-04-10T09:57:02.080Z,97072.44
2023-04-10T10:00:03.668Z,97063.38
2023-04-10T10:03:05.023Z,97053.94
2023-04-10T10:06:02.383Z,97047.16
2023-04-10T10:09:04.263Z,97038.84
2023-04-10T10:12:03.189Z,97042.69
2023-04-10T10:15:38.789Z,97038.06
2023-04-10T10:18:58.769Z,97045.66
2023-04-10T10:21:57.141Z,97031.84
2023-04-10T10:24:56.704Z,97035.94
2023-04-10T10:27:55.386Z,97029.56
2023-04-10T10:30:53.343Z,97021.03
2023-04-10T10:33:52.970Z,97024.13
2023-04-10T10:36:50.463Z,97012.31
2023-04-10T10:40:06.736Z,97009.19
2023-04-10T10:43:14.575Z,97003.84
2023-04-10T10:46:20.806Z,96996.47
2023-04-10T10:49:17.789Z,96991.19
2023-04-10T10:52:14.612Z,96981.31
2023-04-10T10:55:26.021Z,96982.78
2023-04-10T10:58:55.902Z,96968.25
2023-04-10T11:02:19.183Z,96965.66
2023-04-10T11:05:55.596Z,96965.66
2023-04-10T11:08:54.281Z,96953.22
2023-04-10T11:12:01.515Z,96957.16
2023-04-10T11:15:00.928Z,96944.56
2023-04-10T11:17:58.084Z,96947.63
2023-04-10T11:21:14.331Z,96937.22
2023-04-10T11:24:11.449Z,96935.00
2023-04-10T11:27:08.370Z,96937.09
2023-04-10T11:30:29.347Z,96911.81
2023-04-10T11:33:26.239Z,96928.69
2023-04-10T11:36:23.576Z,96912.91
2023-04-10T11:39:21.591Z,96899.06
2023-04-10T11:42:21.357Z,96902.69
2023-04-10T11:45:28.350Z,96895.91
2023-04-10T11:48:25.366Z,96892.66
2023-04-10T11:51:22.420Z,96892.09
2023-04-10T11:54:24.945Z,96891.91
2023-04-10T11:57:22.894Z,96886.81
2023-04-10T12:00:24.450Z,96889.66
2023-04-10T12:03:36.983Z,96884.31
2023-04-10T12:06:34.089Z,96876.53
2023-04-10T12:09:31.094Z,96886.13
2023-04-10T12:12:37.752Z,96877.50
2023-04-10T12:15:35.428Z,96868.00
2023-04-10T12:18:33.062Z,96868.94
2023-04-10T12:21:31.187Z,96852.53
2023-04-10T12:24:51.795Z,96841.41
2023-04-10T12:27:52.959Z,96835.50
2023-04-10T12:30:53.239Z,96833.38
2023-04-10T12:33:53.668Z,96847.25
2023-04-10T12:36:54.105Z,96818.72
2023-04-10T12:39:51.872Z,96826.44
2023-04-10T12:42:48.724Z,96814.13
2023-04-10T12:45:45.899Z,96817.44
2023-04-10T12:48:42.802Z,96816.53
2023-04-10T12:51:52.898Z,96808.28
2023-04-10T12:54:49.739Z,96801.66
2023-04-10T12:57:48.758Z,96811.72
2023-04-10T13:00:46.611Z,96818.31
2023-04-10T13:03:43.847Z,96797.25
2023-04-10T13:06:48.170Z,96783.50
2023-04-10T13:09:45.045Z,96791.72
2023-04-10T13:12:43.622Z,96768.34
2023-04-10T13:15:41.064Z,96761.38
2023-04-10T13:18:38.758Z,96763.22
2023-04-10T13:21:35.712Z,96753.56
2023-04-10T13:24:32.568Z,96751.34
2023-04-10T13:27:29.624Z,96750.44
2023-04-10T13:30:27.557Z,96752.47
2023-04-10T13:33:24.980Z,96744.28
2023-04-10T13:36:21.927Z,96716.75
2023-04-10T13:39:18.866Z,96719.75
2023-04-10T13:42:15.838Z,96724.00
2023-04-10T13:45:12.690Z,96712.69
2023-04-10T13:48:09.566Z,96702.66
2023-04-10T13:51:06.961Z,96726.53
2023-04-10T13:54:04.927Z,96705.88
2023-04-10T13:57:02.841Z,96707.44
2023-04-10T13:59:59.863Z,96704.13
2023-04-10T14:02:56.893Z,96700.34
2023-04-10T14:05:54.425Z,96689.38
2023-04-10T14:08:51.353Z,96684.97
2023-04-10T14:11:48.340Z,96676.97
2023-04-10T14:14:45.902Z,96678.44
2023-04-10T14:17:42.808Z,96682.06
2023-04-10T14:20:42.317Z,96671.88
2023-04-10T14:23:39.391Z,96677.53
2023-04-10T14:26:36.185Z,96671.19
2023-04-10T14:29:37.698Z,96675.28
2023-04-10T14:32:36.278Z,96663.91
2023-04-10T14:35:33.229Z,96664.34
2023-04-10T14:38:30.194Z,96654.69
2023-04-10T14:41:27.015Z,96658.78
2023-04-10T14:44:23.922Z,96656.03
2023-04-10T14:47:20.814Z,96663.81
2023-04-10T14:50:17.866Z,96663.38
2023-04-10T14:53:14.706Z,96648.72
2023-04-10T14:56:15.922Z,96632.59
2023-04-10T14:59:12.832Z,96643.97
2023-04-10T15:02:09.751Z,96634.28
2023-04-10T15:05:07.081Z,96623.63
2023-04-10T15:08:03.979Z,96630.38
2023-04-10T15:11:02.080Z,96633.25
2023-04-10T15:14:02.384Z,96620.28
2023-04-10T15:16:59.439Z,96614.19
2023-04-10T15:19:56.421Z,96604.44
2023-04-10T15:22:53.572Z,96596.22
2023-04-10T15:25:51.012Z,96604.50
2023-04-10T15:28:47.916Z,96599.13
2023-04-10T15:31:44.753Z,96588.66
2023-04-10T15:34:41.596Z,96588.84
2023-04-10T15:37:38.466Z,96580.91
2023-04-10T15:40:35.351Z,96587.09
2023-04-10T15:43:32.328Z,96580.72
2023-04-10T15:46:32.791Z,96577.84
2023-04-10T15:49:37.828Z,96567.19
2023-04-10T15:52:35.601Z,96564.38
2023-04-10T15:55:32.638Z,96556.91
2023-04-10T15:58:29.657Z,96562.69
2023-04-10T16:01:26.652Z,96562.13
2023-04-10T16:04:23.759Z,96561.53
2023-04-10T16:07:21.020Z,96550.44
2023-04-10T16:10:18.185Z,96555.56
2023-04-10T16:13:15.082Z,96549.84
2023-04-10T16:16:16.273Z,96551.47
2023-04-10T16:19:13.214Z,96549.97
2023-04-10T16:22:11.082Z,96537.81
2023-04-10T16:25:08.972Z,96535.41
2023-04-10T16:28:08.058Z,96533.72
2023-04-10T16:31:05.546Z,96515.00
2023-04-10T16:34:02.404Z,96513.41
2023-04-10T16:36:59.340Z,96504.19
2023-04-10T16:39:56.151Z,96499.31
2023-04-10T16:42:53.295Z,96499.34
2023-04-10T16:45:57.726Z,96485.53
2023-04-10T16:48:54.917Z,96477.91
2023-04-10T16:51:52.000Z,96480.28
2023-04-10T16:54:48.828Z,96464.47
2023-04-10T16:57:46.382Z,96467.03
2023-04-10T17:00:43.232Z,96458.13
2023-04-10T17:03:40.174Z,96459.28
2023-04-10T17:06:37.045Z,96448.72
2023-04-10T17:09:33.853Z,96456.00
2023-04-10T17:12:31.106Z,96453.84
2023-04-10T17:15:28.001Z,96449.56
2023-04-10T17:18:24.933Z,96441.06
2023-04-10T17:21:21.843Z,96445.69
2023-04-10T17:24:18.681Z,96436.88
2023-04-10T17:27:15.657Z,96448.47
2023-04-10T17:30:13.601Z,96444.38
2023-04-10T17:33:10.467Z,96455.56
2023-04-10T17:36:08.606Z,96447.56
2023-04-10T17:39:05.679Z,96448.66
2023-04-10T17:42:02.535Z,96453.81
2023-04-10T17:44:59.375Z,96446.97
2023-04-10T17:47:56.240Z,96431.72
2023-04-10T17:50:53.240Z,96409.91
2023-04-10T17:53:50.260Z,96431.94
2023-04-10T17:56:47.108Z,96421.84
2023-04-10T17:59:43.916Z,96419.97
2023-04-10T18:02:41.635Z,96425.28
2023-04-10T18:05:39.760Z,96415.34
2023-04-10T18:08:36.586Z,96407.97
2023-04-10T18:11:33.425Z,96404.75
2023-04-10T18:14:30.563Z,96414.38
2023-04-10T18:17:27.653Z,96415.25
2023-04-10T18:20:24.536Z,96409.28
2023-04-10T18:23:24.070Z,96419.06
2023-04-10T18:26:21.325Z,96409.44
2023-04-10T18:29:18.170Z,96404.69
2023-04-10T18:32:15.026Z,96407.06
2023-04-10T18:35:11.895Z,96403.91
2023-04-10T18:38:08.730Z,96402.66
2023-04-10T18:41:05.869Z,96402.16
2023-04-10T18:44:05.353Z,96401.38
2023-04-10T18:47:04.902Z,96394.75
2023-04-10T18:50:02.105Z,96391.72
2023-04-10T18:52:58.926Z,96390.91
2023-04-10T18:55:55.745Z,96382.88
2023-04-10T18:58:52.573Z,96381.00
2023-04-10T19:01:49.541Z,96384.47
2023-04-10T19:04:46.658Z,96389.38
2023-04-10T19:07:56.619Z,96376.91
2023-04-10T19:10:57.940Z,96362.41
2023-04-10T19:13:55.060Z,96361.94
2023-04-10T19:16:52.273Z,96367.28
2023-04-10T19:19:49.174Z,96366.63
2023-04-10T19:22:46.029Z,96365.06
2023-04-10T19:25:43.729Z,96342.97
2023-04-10T19:28:40.657Z,96351.47
2023-04-10T19:31:37.560Z,96350.88
2023-04-10T19:34:34.418Z,96346.75
2023-04-10T19:37:31.505Z,96344.22
2023-04-10T19:40:29.909Z,96340.75
2023-04-10T19:43:26.811Z,96334.31
2023-04-10T19:46:23.774Z,96331.75
2023-04-10T19:49:20.869Z,96340.94
2023-04-10T19:52:17.749Z,96348.19
2023-04-10T19:55:15.208Z,96347.22
2023-04-10T19:58:30.003Z,96340.47
2023-04-10T20:01:30.037Z,96334.31
2023-04-10T20:04:27.012Z,96348.19
2023-04-10T20:07:24.486Z,96348.91
2023-04-10T20:10:21.766Z,96346.56
2023-04-10T20:13:18.590Z,96334.75
2023-04-10T20:16:15.891Z,96318.44
2023-04-10T20:19:12.757Z,96316.84
2023-04-10T20:22:09.550Z,96317.19
2023-04-10T20:25:07.227Z,96309.31
2023-04-10T20:28:04.076Z,96309.75
2023-04-10T20:31:00.888Z,96304.09
2023-04-10T20:33:57.789Z,96292.00
2023-04-10T20:36:54.611Z,96292.09
2023-04-10T20:39:51.462Z,96280.06
2023-04-10T20:42:48.996Z,96283.38
2023-04-10T20:45:45.999Z,96286.59
2023-04-10T20:48:42.839Z,96276.28
2023-04-10T20:51:39.644Z,96284.31
2023-04-10T20:54:36.445Z,96274.06
2023-04-10T20:57:34.203Z,96266.09
2023-04-10T21:00:31.628Z,96274.00
2023-04-10T21:03:29.442Z,96270.34
2023-04-10T21:06:26.659Z,96266.66
2023-04-10T21:09:23.476Z,96253.19
2023-04-10T21:12:20.280Z,96254.66
2023-04-10T21:15:17.181Z,96253.28
2023-04-10T21:18:13.992Z,96228.91
2023-04-10T21:21:11.283Z,96223.38
2023-04-10T21:24:08.099Z,96225.53
2023-04-10T21:27:05.176Z,96204.28
2023-04-10T21:30:02.094Z,96205.84
2023-04-10T21:32:58.974Z,96210.09
2023-04-10T21:35:56.387Z,96223.00
2023-04-10T21:38:53.538Z,96235.78
2023-04-10T21:41:50.740Z,96232.06
2023-04-10T21:44:47.584Z,96212.22
2023-04-10T21:47:44.386Z,96207.03
2023-04-10T21:50:41.375Z,96212.50
2023-04-10T21:53:38.234Z,96202.78
2023-04-10T21:56:36.744Z,96197.50
2023-04-10T21:59:33.696Z,96202.94
2023-04-10T22:02:30.901Z,96202.38
2023-04-10T22:05:27.935Z,96202.31
2023-04-10T22:08:24.781Z,96198.63
2023-04-10T22:11:21.602Z,96186.84
2023-04-10T22:14:20.798Z,96176.31
2023-04-10T22:17:18.297Z,96174.84
2023-04-10T22:20:16.036Z,96164.06
2023-04-10T22:23:12.850Z,96149.16
2023-04-10T22:26:09.657Z,96141.22
2023-04-10T22:29:06.479Z,96135.31
2023-04-10T22:32:03.327Z,96130.69
2023-04-10T22:35:00.280Z,96123.06
2023-04-10T22:37:57.130Z,96131.44
2023-04-10T22:40:55.842Z,96126.69
2023-04-10T22:43:52.678Z,96127.19
2023-04-10T22:46:49.574Z,96107.84
2023-04-10T22:49:46.794Z,96101.75
2023-04-10T22:52:43.616Z,96090.97
2023-04-10T22:55:41.206Z,96092.91
2023-04-10T22:58:40.392Z,96079.19
2023-04-10T23:01:37.307Z,96069.75
2023-04-10T23:04:34.208Z,96050.81
2023-04-10T23:07:31.061Z,96006.00
2023-04-10T23:10:27.866Z,95988.78
2023-04-10T23:13:24.729Z,95990.13
2023-04-10T23:16:21.637Z,96017.47
2023-04-10T23:19:18.983Z,96025.63
2023-04-10T23:22:16.050Z,96027.91
2023-04-10T23:25:14.004Z,96029.78
2023-04-10T23:28:10.845Z,96030.50
2023-04-10T23:31:09.028Z,96028.31
2023-04-10T23:34:05.965Z,96024.53
2023-04-10T23:37:02.811Z,96013.53
2023-04-10T23:39:59.857Z,96019.06
2023-04-10T23:42:56.821Z,96002.63
2023-04-10T23:45:53.631Z,96023.47
2023-04-10T23:48:50.636Z,95998.94
2023-04-10T23:51:47.925Z,96002.22
2023-04-10T23:54:44.875Z,95995.13
2023-04-10T23:57:41.690Z,95994.75
